sensor_id;sensor_type;location;lat;lon;timestamp;P1;durP1;ratioP1;P2;durP2;ratioP2
24619;SDS011;12763;55.802;37.404;2023-07-08T00:00:20;14.65;;;10.65;;
24619;SDS011;12763;55.802;37.404;2023-07-08T00:02:47;16.42;;;11.00;;
24619;SDS011;12763;55.802;37.404;2023-07-08T00:05:14;16.08;;;10.85;;
24619;SDS011;12763;55.802;37.404;2023-07-08T00:07:42;17.95;;;10.90;;
24619;SDS011;12763;55.802;37.404;2023-07-08T00:10:12;20.85;;;11.07;;
24619;SDS011;12763;55.802;37.404;2023-07-08T00:12:47;16.05;;;10.20;;
24619;SDS011;12763;55.802;37.404;2023-07-08T00:15:15;15.02;;;10.65;;
24619;SDS011;12763;55.802;37.404;2023-07-08T00:17:41;14.90;;;10.48;;
24619;SDS011;12763;55.802;37.404;2023-07-08T00:20:16;16.38;;;10.85;;
24619;SDS011;12763;55.802;37.404;2023-07-08T00:22:46;16.00;;;10.30;;
24619;SDS011;12763;55.802;37.404;2023-07-08T00:25:13;17.23;;;11.07;;
24619;SDS011;12763;55.802;37.404;2023-07-08T00:27:45;14.63;;;10.77;;
24619;SDS011;12763;55.802;37.404;2023-07-08T00:30:20;19.48;;;11.07;;
24619;SDS011;12763;55.802;37.404;2023-07-08T00:32:49;14.77;;;10.43;;
24619;SDS011;12763;55.802;37.404;2023-07-08T00:35:22;16.15;;;10.35;;
24619;SDS011;12763;55.802;37.404;2023-07-08T00:37:51;21.45;;;11.50;;
24619;SDS011;12763;55.802;37.404;2023-07-08T00:40:20;19.17;;;10.48;;
24619;SDS011;12763;55.802;37.404;2023-07-08T00:42:46;15.00;;;10.27;;
24619;SDS011;12763;55.802;37.404;2023-07-08T00:45:30;17.25;;;10.93;;
24619;SDS011;12763;55.802;37.404;2023-07-08T00:50:51;16.23;;;10.70;;
24619;SDS011;12763;55.802;37.404;2023-07-08T00:53:35;19.73;;;11.15;;
24619;SDS011;12763;55.802;37.404;2023-07-08T00:58:41;16.80;;;11.35;;
24619;SDS011;12763;55.802;37.404;2023-07-08T01:01:11;15.38;;;10.95;;
24619;SDS011;12763;55.802;37.404;2023-07-08T01:03:49;16.90;;;10.65;;
24619;SDS011;12763;55.802;37.404;2023-07-08T01:06:23;20.30;;;11.77;;
24619;SDS011;12763;55.802;37.404;2023-07-08T01:08:57;17.15;;;10.98;;
24619;SDS011;12763;55.802;37.404;2023-07-08T01:11:28;15.85;;;10.23;;
24619;SDS011;12763;55.802;37.404;2023-07-08T01:13:55;16.05;;;11.00;;
24619;SDS011;12763;55.802;37.404;2023-07-08T01:16:24;16.77;;;10.95;;
24619;SDS011;12763;55.802;37.404;2023-07-08T01:18:50;17.00;;;11.02;;
24619;SDS011;12763;55.802;37.404;2023-07-08T01:21:52;19.63;;;12.80;;
24619;SDS011;12763;55.802;37.404;2023-07-08T01:24:29;15.77;;;10.85;;
24619;SDS011;12763;55.802;37.404;2023-07-08T01:26:58;17.65;;;12.25;;
24619;SDS011;12763;55.802;37.404;2023-07-08T01:29:27;17.75;;;12.27;;
24619;SDS011;12763;55.802;37.404;2023-07-08T01:31:57;18.63;;;12.27;;
24619;SDS011;12763;55.802;37.404;2023-07-08T01:34:24;20.77;;;12.98;;
24619;SDS011;12763;55.802;37.404;2023-07-08T01:36:51;17.63;;;11.98;;
24619;SDS011;12763;55.802;37.404;2023-07-08T01:39:21;21.10;;;12.90;;
24619;SDS011;12763;55.802;37.404;2023-07-08T01:41:48;16.90;;;11.70;;
24619;SDS011;12763;55.802;37.404;2023-07-08T01:44:22;20.05;;;12.00;;
24619;SDS011;12763;55.802;37.404;2023-07-08T01:47:00;20.30;;;12.10;;
24619;SDS011;12763;55.802;37.404;2023-07-08T01:49:33;17.33;;;12.20;;
24619;SDS011;12763;55.802;37.404;2023-07-08T01:52:01;20.83;;;12.25;;
24619;SDS011;12763;55.802;37.404;2023-07-08T01:54:27;26.92;;;14.15;;
24619;SDS011;12763;55.802;37.404;2023-07-08T01:56:56;19.00;;;12.95;;
24619;SDS011;12763;55.802;37.404;2023-07-08T01:59:23;22.30;;;13.88;;
24619;SDS011;12763;55.802;37.404;2023-07-08T02:01:50;18.95;;;12.98;;
24619;SDS011;12763;55.802;37.404;2023-07-08T02:04:23;19.52;;;12.52;;
24619;SDS011;12763;55.802;37.404;2023-07-08T02:06:54;18.33;;;12.15;;
24619;SDS011;12763;55.802;37.404;2023-07-08T02:09:21;22.25;;;13.65;;
24619;SDS011;12763;55.802;37.404;2023-07-08T02:11:47;17.23;;;12.40;;
24619;SDS011;12763;55.802;37.404;2023-07-08T02:14:13;19.63;;;13.18;;
24619;SDS011;12763;55.802;37.404;2023-07-08T02:16:39;20.13;;;13.13;;
24619;SDS011;12763;55.802;37.404;2023-07-08T02:19:05;22.13;;;13.57;;
24619;SDS011;12763;55.802;37.404;2023-07-08T02:21:31;20.38;;;12.73;;
24619;SDS011;12763;55.802;37.404;2023-07-08T02:23:57;18.73;;;12.48;;
24619;SDS011;12763;55.802;37.404;2023-07-08T02:26:23;19.88;;;12.27;;
24619;SDS011;12763;55.802;37.404;2023-07-08T02:28:49;19.35;;;12.25;;
24619;SDS011;12763;55.802;37.404;2023-07-08T02:31:15;19.40;;;13.60;;
24619;SDS011;12763;55.802;37.404;2023-07-08T02:33:41;19.35;;;12.70;;
24619;SDS011;12763;55.802;37.404;2023-07-08T02:36:07;21.92;;;13.05;;
24619;SDS011;12763;55.802;37.404;2023-07-08T02:38:33;20.73;;;13.00;;
24619;SDS011;12763;55.802;37.404;2023-07-08T02:40:59;18.55;;;13.13;;
24619;SDS011;12763;55.802;37.404;2023-07-08T02:43:25;18.10;;;13.10;;
24619;SDS011;12763;55.802;37.404;2023-07-08T02:45:51;19.60;;;12.65;;
24619;SDS011;12763;55.802;37.404;2023-07-08T02:48:17;19.98;;;13.65;;
24619;SDS011;12763;55.802;37.404;2023-07-08T02:50:44;20.60;;;13.10;;
24619;SDS011;12763;55.802;37.404;2023-07-08T02:53:10;24.77;;;14.38;;
24619;SDS011;12763;55.802;37.404;2023-07-08T02:55:36;18.92;;;12.68;;
24619;SDS011;12763;55.802;37.404;2023-07-08T02:58:01;17.02;;;11.85;;
24619;SDS011;12763;55.802;37.404;2023-07-08T03:00:27;18.83;;;13.07;;
24619;SDS011;12763;55.802;37.404;2023-07-08T03:02:53;20.15;;;13.05;;
24619;SDS011;12763;55.802;37.404;2023-07-08T03:05:20;20.27;;;12.85;;
24619;SDS011;12763;55.802;37.404;2023-07-08T03:07:46;18.55;;;13.13;;
24619;SDS011;12763;55.802;37.404;2023-07-08T03:10:12;18.77;;;12.32;;
24619;SDS011;12763;55.802;37.404;2023-07-08T03:12:37;18.02;;;12.38;;
24619;SDS011;12763;55.802;37.404;2023-07-08T03:15:04;19.90;;;12.10;;
24619;SDS011;12763;55.802;37.404;2023-07-08T03:17:31;20.85;;;12.25;;
24619;SDS011;12763;55.802;37.404;2023-07-08T03:19:57;19.35;;;12.93;;
24619;SDS011;12763;55.802;37.404;2023-07-08T03:22:22;16.83;;;12.30;;
24619;SDS011;12763;55.802;37.404;2023-07-08T03:24:48;21.42;;;12.73;;
24619;SDS011;12763;55.802;37.404;2023-07-08T03:27:17;19.50;;;12.07;;
24619;SDS011;12763;55.802;37.404;2023-07-08T03:29:46;22.40;;;11.60;;
24619;SDS011;12763;55.802;37.404;2023-07-08T03:32:12;14.75;;;11.10;;
24619;SDS011;12763;55.802;37.404;2023-07-08T03:34:38;17.83;;;10.63;;
24619;SDS011;12763;55.802;37.404;2023-07-08T03:37:04;15.55;;;11.65;;
24619;SDS011;12763;55.802;37.404;2023-07-08T03:39:30;19.80;;;11.77;;
24619;SDS011;12763;55.802;37.404;2023-07-08T03:41:59;20.00;;;13.38;;
24619;SDS011;12763;55.802;37.404;2023-07-08T03:44:26;19.38;;;12.02;;
24619;SDS011;12763;55.802;37.404;2023-07-08T03:46:52;18.08;;;11.27;;
24619;SDS011;12763;55.802;37.404;2023-07-08T03:49:19;16.45;;;11.27;;
24619;SDS011;12763;55.802;37.404;2023-07-08T03:51:50;15.20;;;10.88;;
24619;SDS011;12763;55.802;37.404;2023-07-08T03:54:22;19.27;;;11.77;;
24619;SDS011;12763;55.802;37.404;2023-07-08T03:56:51;15.55;;;11.02;;
24619;SDS011;12763;55.802;37.404;2023-07-08T03:59:19;16.40;;;11.45;;
24619;SDS011;12763;55.802;37.404;2023-07-08T04:01:45;15.30;;;10.65;;
24619;SDS011;12763;55.802;37.404;2023-07-08T04:04:13;16.00;;;10.07;;
24619;SDS011;12763;55.802;37.404;2023-07-08T04:06:42;17.00;;;11.18;;
24619;SDS011;12763;55.802;37.404;2023-07-08T04:09:09;17.88;;;11.32;;
24619;SDS011;12763;55.802;37.404;2023-07-08T04:11:35;17.75;;;12.00;;
24619;SDS011;12763;55.802;37.404;2023-07-08T04:14:01;18.30;;;11.27;;
24619;SDS011;12763;55.802;37.404;2023-07-08T04:16:31;16.33;;;11.45;;
24619;SDS011;12763;55.802;37.404;2023-07-08T04:19:02;16.05;;;10.93;;
24619;SDS011;12763;55.802;37.404;2023-07-08T04:21:28;16.80;;;10.45;;
24619;SDS011;12763;55.802;37.404;2023-07-08T04:23:55;19.58;;;12.20;;
24619;SDS011;12763;55.802;37.404;2023-07-08T04:26:21;15.65;;;11.50;;
24619;SDS011;12763;55.802;37.404;2023-07-08T04:28:47;15.63;;;10.50;;
24619;SDS011;12763;55.802;37.404;2023-07-08T04:31:13;15.35;;;11.07;;
24619;SDS011;12763;55.802;37.404;2023-07-08T04:33:39;14.45;;;9.90;;
24619;SDS011;12763;55.802;37.404;2023-07-08T04:36:08;17.02;;;10.55;;
24619;SDS011;12763;55.802;37.404;2023-07-08T04:38:39;17.60;;;10.98;;
24619;SDS011;12763;55.802;37.404;2023-07-08T04:41:07;15.45;;;10.52;;
24619;SDS011;12763;55.802;37.404;2023-07-08T04:43:33;16.70;;;11.27;;
24619;SDS011;12763;55.802;37.404;2023-07-08T04:45:59;15.23;;;10.10;;
24619;SDS011;12763;55.802;37.404;2023-07-08T04:48:25;18.35;;;10.75;;
24619;SDS011;12763;55.802;37.404;2023-07-08T04:50:52;16.63;;;10.48;;
24619;SDS011;12763;55.802;37.404;2023-07-08T04:53:18;17.08;;;10.70;;
24619;SDS011;12763;55.802;37.404;2023-07-08T04:55:46;18.45;;;11.00;;
24619;SDS011;12763;55.802;37.404;2023-07-08T04:58:15;17.08;;;10.10;;
24619;SDS011;12763;55.802;37.404;2023-07-08T05:00:41;13.25;;;9.88;;
24619;SDS011;12763;55.802;37.404;2023-07-08T05:03:07;13.40;;;9.73;;
24619;SDS011;12763;55.802;37.404;2023-07-08T05:05:33;14.27;;;9.48;;
24619;SDS011;12763;55.802;37.404;2023-07-08T05:07:59;14.63;;;9.57;;
24619;SDS011;12763;55.802;37.404;2023-07-08T05:10:26;15.63;;;9.88;;
24619;SDS011;12763;55.802;37.404;2023-07-08T05:12:52;11.90;;;8.88;;
24619;SDS011;12763;55.802;37.404;2023-07-08T05:15:18;14.88;;;9.18;;
24619;SDS011;12763;55.802;37.404;2023-07-08T05:17:44;13.40;;;10.07;;
24619;SDS011;12763;55.802;37.404;2023-07-08T05:20:11;11.88;;;8.77;;
24619;SDS011;12763;55.802;37.404;2023-07-08T05:22:39;14.43;;;9.65;;
24619;SDS011;12763;55.802;37.404;2023-07-08T05:25:05;12.15;;;9.00;;
24619;SDS011;12763;55.802;37.404;2023-07-08T05:27:31;13.20;;;8.77;;
24619;SDS011;12763;55.802;37.404;2023-07-08T05:30:01;10.95;;;8.35;;
24619;SDS011;12763;55.802;37.404;2023-07-08T05:32:31;11.65;;;8.52;;
24619;SDS011;12763;55.802;37.404;2023-07-08T05:34:57;12.60;;;8.60;;
24619;SDS011;12763;55.802;37.404;2023-07-08T05:37:23;12.82;;;8.57;;
24619;SDS011;12763;55.802;37.404;2023-07-08T05:39:54;16.67;;;9.27;;
24619;SDS011;12763;55.802;37.404;2023-07-08T05:42:21;12.13;;;8.35;;
24619;SDS011;12763;55.802;37.404;2023-07-08T05:44:48;14.02;;;8.48;;
24619;SDS011;12763;55.802;37.404;2023-07-08T05:47:14;15.77;;;9.57;;
24619;SDS011;12763;55.802;37.404;2023-07-08T05:49:41;13.05;;;8.77;;
24619;SDS011;12763;55.802;37.404;2023-07-08T05:52:07;12.57;;;8.02;;
24619;SDS011;12763;55.802;37.404;2023-07-08T05:54:37;11.93;;;8.38;;
24619;SDS011;12763;55.802;37.404;2023-07-08T05:57:05;12.75;;;8.82;;
24619;SDS011;12763;55.802;37.404;2023-07-08T05:59:32;13.30;;;8.77;;
24619;SDS011;12763;55.802;37.404;2023-07-08T06:01:59;11.18;;;8.15;;
24619;SDS011;12763;55.802;37.404;2023-07-08T06:04:26;13.63;;;8.93;;
24619;SDS011;12763;55.802;37.404;2023-07-08T06:06:52;21.10;;;8.73;;
24619;SDS011;12763;55.802;37.404;2023-07-08T06:09:19;15.55;;;9.27;;
24619;SDS011;12763;55.802;37.404;2023-07-08T06:11:45;12.27;;;9.13;;
24619;SDS011;12763;55.802;37.404;2023-07-08T06:14:11;14.70;;;9.07;;
24619;SDS011;12763;55.802;37.404;2023-07-08T06:16:37;15.27;;;9.13;;
24619;SDS011;12763;55.802;37.404;2023-07-08T06:19:03;17.25;;;9.00;;
24619;SDS011;12763;55.802;37.404;2023-07-08T06:21:29;18.15;;;9.52;;
24619;SDS011;12763;55.802;37.404;2023-07-08T06:23:55;12.25;;;8.02;;
24619;SDS011;12763;55.802;37.404;2023-07-08T06:26:21;14.10;;;7.95;;
24619;SDS011;12763;55.802;37.404;2023-07-08T06:28:47;13.13;;;8.95;;
24619;SDS011;12763;55.802;37.404;2023-07-08T06:31:13;10.68;;;7.70;;
24619;SDS011;12763;55.802;37.404;2023-07-08T06:33:39;14.68;;;8.90;;
24619;SDS011;12763;55.802;37.404;2023-07-08T06:36:05;15.20;;;8.15;;
24619;SDS011;12763;55.802;37.404;2023-07-08T06:38:32;11.82;;;7.70;;
24619;SDS011;12763;55.802;37.404;2023-07-08T06:40:58;12.13;;;8.20;;
24619;SDS011;12763;55.802;37.404;2023-07-08T06:43:24;9.95;;;7.95;;
24619;SDS011;12763;55.802;37.404;2023-07-08T06:45:59;13.40;;;8.00;;
24619;SDS011;12763;55.802;37.404;2023-07-08T06:48:25;12.48;;;7.97;;
24619;SDS011;12763;55.802;37.404;2023-07-08T06:50:51;12.45;;;7.68;;
24619;SDS011;12763;55.802;37.404;2023-07-08T06:53:17;13.43;;;8.30;;
24619;SDS011;12763;55.802;37.404;2023-07-08T06:55:46;14.57;;;8.40;;
24619;SDS011;12763;55.802;37.404;2023-07-08T06:58:12;15.07;;;8.00;;
24619;SDS011;12763;55.802;37.404;2023-07-08T07:00:41;11.95;;;7.88;;
24619;SDS011;12763;55.802;37.404;2023-07-08T07:03:08;18.67;;;8.32;;
24619;SDS011;12763;55.802;37.404;2023-07-08T07:05:34;12.27;;;7.55;;
24619;SDS011;12763;55.802;37.404;2023-07-08T07:08:00;13.45;;;8.35;;
24619;SDS011;12763;55.802;37.404;2023-07-08T07:10:27;16.60;;;8.48;;
24619;SDS011;12763;55.802;37.404;2023-07-08T07:12:52;10.65;;;7.82;;
24619;SDS011;12763;55.802;37.404;2023-07-08T07:15:18;12.25;;;8.88;;
24619;SDS011;12763;55.802;37.404;2023-07-08T07:17:44;13.93;;;8.80;;
24619;SDS011;12763;55.802;37.404;2023-07-08T07:20:10;11.50;;;8.60;;
24619;SDS011;12763;55.802;37.404;2023-07-08T07:22:36;11.70;;;7.75;;
24619;SDS011;12763;55.802;37.404;2023-07-08T07:25:03;11.23;;;8.30;;
24619;SDS011;12763;55.802;37.404;2023-07-08T07:27:29;11.68;;;8.30;;
24619;SDS011;12763;55.802;37.404;2023-07-08T07:29:55;12.57;;;8.77;;
24619;SDS011;12763;55.802;37.404;2023-07-08T07:32:25;12.52;;;7.30;;
24619;SDS011;12763;55.802;37.404;2023-07-08T07:34:51;13.55;;;7.57;;
24619;SDS011;12763;55.802;37.404;2023-07-08T07:37:19;11.52;;;8.10;;
24619;SDS011;12763;55.802;37.404;2023-07-08T07:39:47;13.25;;;7.88;;
24619;SDS011;12763;55.802;37.404;2023-07-08T07:42:14;14.35;;;8.23;;
24619;SDS011;12763;55.802;37.404;2023-07-08T07:44:40;11.57;;;8.32;;
24619;SDS011;12763;55.802;37.404;2023-07-08T07:47:07;13.48;;;8.05;;
24619;SDS011;12763;55.802;37.404;2023-07-08T07:49:33;12.98;;;7.63;;
24619;SDS011;12763;55.802;37.404;2023-07-08T07:51:59;11.18;;;7.60;;
24619;SDS011;12763;55.802;37.404;2023-07-08T07:54:25;11.48;;;7.57;;
24619;SDS011;12763;55.802;37.404;2023-07-08T07:56:51;13.93;;;7.80;;
24619;SDS011;12763;55.802;37.404;2023-07-08T07:59:18;14.18;;;7.82;;
24619;SDS011;12763;55.802;37.404;2023-07-08T08:01:44;18.27;;;7.85;;
24619;SDS011;12763;55.802;37.404;2023-07-08T08:04:10;10.45;;;8.00;;
24619;SDS011;12763;55.802;37.404;2023-07-08T08:06:36;11.80;;;8.30;;
24619;SDS011;12763;55.802;37.404;2023-07-08T08:09:03;11.02;;;7.28;;
24619;SDS011;12763;55.802;37.404;2023-07-08T08:11:29;13.60;;;7.57;;
24619;SDS011;12763;55.802;37.404;2023-07-08T08:13:56;11.13;;;7.70;;
24619;SDS011;12763;55.802;37.404;2023-07-08T08:16:22;11.93;;;7.80;;
24619;SDS011;12763;55.802;37.404;2023-07-08T08:18:48;14.93;;;7.53;;
24619;SDS011;12763;55.802;37.404;2023-07-08T08:21:15;15.88;;;8.15;;
24619;SDS011;12763;55.802;37.404;2023-07-08T08:23:41;10.57;;;7.28;;
24619;SDS011;12763;55.802;37.404;2023-07-08T08:26:07;13.20;;;8.82;;
24619;SDS011;12763;55.802;37.404;2023-07-08T08:28:33;12.20;;;7.85;;
24619;SDS011;12763;55.802;37.404;2023-07-08T08:30:59;12.07;;;7.75;;
24619;SDS011;12763;55.802;37.404;2023-07-08T08:33:25;13.93;;;9.00;;
24619;SDS011;12763;55.802;37.404;2023-07-08T08:35:51;11.45;;;7.22;;
24619;SDS011;12763;55.802;37.404;2023-07-08T08:38:17;10.77;;;8.18;;
24619;SDS011;12763;55.802;37.404;2023-07-08T08:40:43;11.48;;;7.78;;
24619;SDS011;12763;55.802;37.404;2023-07-08T08:43:10;10.98;;;8.20;;
24619;SDS011;12763;55.802;37.404;2023-07-08T08:48:21;13.20;;;7.20;;
24619;SDS011;12763;55.802;37.404;2023-07-08T08:50:50;9.43;;;7.30;;
24619;SDS011;12763;55.802;37.404;2023-07-08T08:55:51;8.27;;;6.57;;
24619;SDS011;12763;55.802;37.404;2023-07-08T08:58:30;7.40;;;6.13;;
24619;SDS011;12763;55.802;37.404;2023-07-08T09:01:13;12.20;;;6.80;;
24619;SDS011;12763;55.802;37.404;2023-07-08T09:08:54;10.15;;;6.63;;
24619;SDS011;12763;55.802;37.404;2023-07-08T09:11:23;9.48;;;6.80;;
24619;SDS011;12763;55.802;37.404;2023-07-08T09:14:07;10.63;;;6.57;;
24619;SDS011;12763;55.802;37.404;2023-07-08T09:16:52;11.68;;;7.10;;
24619;SDS011;12763;55.802;37.404;2023-07-08T09:19:35;10.32;;;6.80;;
24619;SDS011;12763;55.802;37.404;2023-07-08T09:22:11;11.63;;;6.38;;
24619;SDS011;12763;55.802;37.404;2023-07-08T09:27:45;9.57;;;6.00;;
24619;SDS011;12763;55.802;37.404;2023-07-08T09:30:13;8.57;;;5.95;;
24619;SDS011;12763;55.802;37.404;2023-07-08T09:32:46;6.90;;;5.43;;
24619;SDS011;12763;55.802;37.404;2023-07-08T09:35:23;8.55;;;5.55;;
24619;SDS011;12763;55.802;37.404;2023-07-08T09:37:51;6.93;;;5.53;;
24619;SDS011;12763;55.802;37.404;2023-07-08T09:40:19;13.57;;;6.10;;
24619;SDS011;12763;55.802;37.404;2023-07-08T09:42:46;8.95;;;5.78;;
24619;SDS011;12763;55.802;37.404;2023-07-08T09:45:18;6.93;;;5.15;;
24619;SDS011;12763;55.802;37.404;2023-07-08T09:47:47;6.50;;;4.68;;
24619;SDS011;12763;55.802;37.404;2023-07-08T09:50:21;8.25;;;5.28;;
24619;SDS011;12763;55.802;37.404;2023-07-08T09:52:50;6.35;;;5.03;;
24619;SDS011;12763;55.802;37.404;2023-07-08T09:55:17;6.53;;;5.38;;
24619;SDS011;12763;55.802;37.404;2023-07-08T09:57:43;5.20;;;4.40;;
24619;SDS011;12763;55.802;37.404;2023-07-08T10:00:12;7.60;;;4.85;;
24619;SDS011;12763;55.802;37.404;2023-07-08T10:02:51;6.32;;;3.97;;
24619;SDS011;12763;55.802;37.404;2023-07-08T10:05:23;6.57;;;3.60;;
24619;SDS011;12763;55.802;37.404;2023-07-08T10:07:53;5.47;;;4.03;;
24619;SDS011;12763;55.802;37.404;2023-07-08T10:10:26;5.25;;;3.88;;
24619;SDS011;12763;55.802;37.404;2023-07-08T10:12:57;5.07;;;3.67;;
24619;SDS011;12763;55.802;37.404;2023-07-08T10:15:38;6.00;;;4.05;;
24619;SDS011;12763;55.802;37.404;2023-07-08T10:18:10;7.05;;;3.95;;
24619;SDS011;12763;55.802;37.404;2023-07-08T10:21:02;7.13;;;3.90;;
24619;SDS011;12763;55.802;37.404;2023-07-08T10:23:40;5.00;;;3.50;;
24619;SDS011;12763;55.802;37.404;2023-07-08T10:26:29;5.00;;;3.72;;
24619;SDS011;12763;55.802;37.404;2023-07-08T10:34:37;5.38;;;4.10;;
24619;SDS011;12763;55.802;37.404;2023-07-08T10:51:09;7.40;;;4.22;;
24619;SDS011;12763;55.802;37.404;2023-07-08T10:59:57;4.93;;;3.72;;
24619;SDS011;12763;55.802;37.404;2023-07-08T11:05:18;6.13;;;3.65;;
24619;SDS011;12763;55.802;37.404;2023-07-08T11:10:47;4.30;;;3.30;;
24619;SDS011;12763;55.802;37.404;2023-07-08T11:13:33;5.22;;;3.40;;
24619;SDS011;12763;55.802;37.404;2023-07-08T11:16:07;5.95;;;3.20;;
24619;SDS011;12763;55.802;37.404;2023-07-08T11:19:24;4.57;;;2.63;;
24619;SDS011;12763;55.802;37.404;2023-07-08T11:21:45;6.78;;;2.83;;
24619;SDS011;12763;55.802;37.404;2023-07-08T11:26:55;6.85;;;3.25;;
24619;SDS011;12763;55.802;37.404;2023-07-08T11:29:42;4.53;;;2.72;;
24619;SDS011;12763;55.802;37.404;2023-07-08T11:32:17;3.63;;;2.58;;
24619;SDS011;12763;55.802;37.404;2023-07-08T11:34:46;3.78;;;3.38;;
24619;SDS011;12763;55.802;37.404;2023-07-08T11:37:14;4.50;;;3.28;;
24619;SDS011;12763;55.802;37.404;2023-07-08T11:39:42;6.75;;;3.67;;
24619;SDS011;12763;55.802;37.404;2023-07-08T11:42:20;5.82;;;3.50;;
24619;SDS011;12763;55.802;37.404;2023-07-08T11:44:56;3.53;;;2.80;;
24619;SDS011;12763;55.802;37.404;2023-07-08T11:47:33;3.80;;;2.80;;
24619;SDS011;12763;55.802;37.404;2023-07-08T11:50:08;6.05;;;3.10;;
24619;SDS011;12763;55.802;37.404;2023-07-08T11:53:00;9.20;;;3.10;;
24619;SDS011;12763;55.802;37.404;2023-07-08T11:58:07;8.00;;;3.17;;
24619;SDS011;12763;55.802;37.404;2023-07-08T12:00:40;5.65;;;2.97;;
24619;SDS011;12763;55.802;37.404;2023-07-08T12:03:22;5.25;;;3.20;;
24619;SDS011;12763;55.802;37.404;2023-07-08T12:05:55;4.70;;;2.70;;
24619;SDS011;12763;55.802;37.404;2023-07-08T12:08:22;9.95;;;3.53;;
24619;SDS011;12763;55.802;37.404;2023-07-08T12:11:03;5.90;;;2.90;;
24619;SDS011;12763;55.802;37.404;2023-07-08T12:13:29;4.45;;;2.88;;
24619;SDS011;12763;55.802;37.404;2023-07-08T12:15:56;4.50;;;3.35;;
24619;SDS011;12763;55.802;37.404;2023-07-08T12:18:25;4.25;;;2.92;;
24619;SDS011;12763;55.802;37.404;2023-07-08T12:20:58;6.30;;;3.42;;
24619;SDS011;12763;55.802;37.404;2023-07-08T12:23:27;3.42;;;2.92;;
24619;SDS011;12763;55.802;37.404;2023-07-08T12:25:54;6.32;;;3.55;;
24619;SDS011;12763;55.802;37.404;2023-07-08T12:28:23;4.40;;;3.35;;
24619;SDS011;12763;55.802;37.404;2023-07-08T12:30:50;5.85;;;3.53;;
24619;SDS011;12763;55.802;37.404;2023-07-08T12:33:29;5.70;;;3.30;;
24619;SDS011;12763;55.802;37.404;2023-07-08T12:35:59;8.57;;;3.58;;
24619;SDS011;12763;55.802;37.404;2023-07-08T12:38:37;6.95;;;3.20;;
24619;SDS011;12763;55.802;37.404;2023-07-08T12:41:08;9.88;;;3.58;;
24619;SDS011;12763;55.802;37.404;2023-07-08T12:43:36;3.83;;;2.95;;
24619;SDS011;12763;55.802;37.404;2023-07-08T12:46:02;4.85;;;2.72;;
24619;SDS011;12763;55.802;37.404;2023-07-08T12:48:35;8.60;;;3.45;;
24619;SDS011;12763;55.802;37.404;2023-07-08T12:51:02;3.80;;;3.03;;
24619;SDS011;12763;55.802;37.404;2023-07-08T12:53:29;4.45;;;3.08;;
24619;SDS011;12763;55.802;37.404;2023-07-08T12:55:57;4.75;;;3.33;;
24619;SDS011;12763;55.802;37.404;2023-07-08T12:58:25;4.97;;;3.50;;
24619;SDS011;12763;55.802;37.404;2023-07-08T13:00:57;4.25;;;2.92;;
24619;SDS011;12763;55.802;37.404;2023-07-08T13:03:26;6.07;;;2.85;;
24619;SDS011;12763;55.802;37.404;2023-07-08T13:05:55;6.45;;;3.50;;
24619;SDS011;12763;55.802;37.404;2023-07-08T13:08:23;4.03;;;2.53;;
24619;SDS011;12763;55.802;37.404;2023-07-08T13:10:52;5.95;;;3.00;;
24619;SDS011;12763;55.802;37.404;2023-07-08T13:13:26;3.63;;;3.08;;
24619;SDS011;12763;55.802;37.404;2023-07-08T13:15:55;3.17;;;2.67;;
24619;SDS011;12763;55.802;37.404;2023-07-08T13:18:29;4.93;;;2.72;;
24619;SDS011;12763;55.802;37.404;2023-07-08T13:20:57;5.75;;;3.55;;
24619;SDS011;12763;55.802;37.404;2023-07-08T13:23:24;4.18;;;3.35;;
24619;SDS011;12763;55.802;37.404;2023-07-08T13:25:52;6.30;;;3.20;;
24619;SDS011;12763;55.802;37.404;2023-07-08T13:28:29;4.28;;;2.88;;
24619;SDS011;12763;55.802;37.404;2023-07-08T13:31:02;5.53;;;2.90;;
24619;SDS011;12763;55.802;37.404;2023-07-08T13:33:44;3.42;;;2.45;;
24619;SDS011;12763;55.802;37.404;2023-07-08T13:36:11;4.50;;;3.00;;
24619;SDS011;12763;55.802;37.404;2023-07-08T13:38:38;5.72;;;2.65;;
24619;SDS011;12763;55.802;37.404;2023-07-08T13:41:05;4.75;;;2.88;;
24619;SDS011;12763;55.802;37.404;2023-07-08T13:43:35;8.55;;;2.90;;
24619;SDS011;12763;55.802;37.404;2023-07-08T13:46:04;5.22;;;2.80;;
24619;SDS011;12763;55.802;37.404;2023-07-08T13:51:03;5.43;;;2.72;;
24619;SDS011;12763;55.802;37.404;2023-07-08T13:53:47;4.15;;;2.60;;
24619;SDS011;12763;55.802;37.404;2023-07-08T13:56:34;4.03;;;2.92;;
24619;SDS011;12763;55.802;37.404;2023-07-08T13:59:05;4.22;;;2.40;;
24619;SDS011;12763;55.802;37.404;2023-07-08T14:01:35;6.25;;;2.53;;
24619;SDS011;12763;55.802;37.404;2023-07-08T14:04:05;4.13;;;2.55;;
24619;SDS011;12763;55.802;37.404;2023-07-08T14:06:33;7.68;;;2.97;;
24619;SDS011;12763;55.802;37.404;2023-07-08T14:09:06;4.47;;;2.47;;
24619;SDS011;12763;55.802;37.404;2023-07-08T14:11:41;3.03;;;2.47;;
24619;SDS011;12763;55.802;37.404;2023-07-08T14:14:08;5.63;;;2.65;;
24619;SDS011;12763;55.802;37.404;2023-07-08T14:16:36;3.83;;;2.80;;
24619;SDS011;12763;55.802;37.404;2023-07-08T14:19:06;3.53;;;2.22;;
24619;SDS011;12763;55.802;37.404;2023-07-08T14:21:36;4.43;;;2.58;;
24619;SDS011;12763;55.802;37.404;2023-07-08T14:24:08;4.65;;;2.65;;
24619;SDS011;12763;55.802;37.404;2023-07-08T14:26:39;7.45;;;2.60;;
24619;SDS011;12763;55.802;37.404;2023-07-08T14:29:09;6.68;;;3.28;;
24619;SDS011;12763;55.802;37.404;2023-07-08T14:31:36;5.25;;;2.78;;
24619;SDS011;12763;55.802;37.404;2023-07-08T14:34:17;5.88;;;2.75;;
24619;SDS011;12763;55.802;37.404;2023-07-08T14:36:51;3.47;;;2.70;;
24619;SDS011;12763;55.802;37.404;2023-07-08T14:39:18;6.25;;;2.85;;
24619;SDS011;12763;55.802;37.404;2023-07-08T14:41:44;4.68;;;3.17;;
24619;SDS011;12763;55.802;37.404;2023-07-08T14:46:49;7.43;;;3.22;;
24619;SDS011;12763;55.802;37.404;2023-07-08T14:49:19;3.53;;;2.70;;
24619;SDS011;12763;55.802;37.404;2023-07-08T14:51:46;6.78;;;2.97;;
24619;SDS011;12763;55.802;37.404;2023-07-08T14:54:13;9.30;;;3.58;;
24619;SDS011;12763;55.802;37.404;2023-07-08T14:56:40;9.57;;;3.28;;
24619;SDS011;12763;55.802;37.404;2023-07-08T14:59:17;6.03;;;2.60;;
24619;SDS011;12763;55.802;37.404;2023-07-08T15:01:45;5.53;;;2.88;;
24619;SDS011;12763;55.802;37.404;2023-07-08T15:04:12;4.72;;;2.50;;
24619;SDS011;12763;55.802;37.404;2023-07-08T15:06:40;7.20;;;2.55;;
24619;SDS011;12763;55.802;37.404;2023-07-08T15:09:06;6.55;;;2.63;;
24619;SDS011;12763;55.802;37.404;2023-07-08T15:11:33;6.38;;;2.75;;
24619;SDS011;12763;55.802;37.404;2023-07-08T15:14:01;5.45;;;2.92;;
24619;SDS011;12763;55.802;37.404;2023-07-08T15:16:27;7.32;;;2.90;;
24619;SDS011;12763;55.802;37.404;2023-07-08T15:18:53;5.13;;;2.53;;
24619;SDS011;12763;55.802;37.404;2023-07-08T15:21:19;5.00;;;3.10;;
24619;SDS011;12763;55.802;37.404;2023-07-08T15:23:45;9.93;;;5.40;;
24619;SDS011;12763;55.802;37.404;2023-07-08T15:26:12;6.78;;;3.63;;
24619;SDS011;12763;55.802;37.404;2023-07-08T15:28:40;6.53;;;3.25;;
24619;SDS011;12763;55.802;37.404;2023-07-08T15:31:16;7.55;;;2.88;;
24619;SDS011;12763;55.802;37.404;2023-07-08T15:33:45;9.63;;;2.88;;